createdAt,value
2023-03-17T00:00:51.661Z,68.85
2023-03-17T00:03:26.747Z,68.60
2023-03-17T00:06:01.011Z,68.61
2023-03-17T00:08:34.506Z,68.58
2023-03-17T00:11:05.965Z,68.79
2023-03-17T00:13:39.134Z,68.94
2023-03-17T00:16:17.772Z,69.07
2023-03-17T00:18:50.013Z,69.33
2023-03-17T00:21:30.090Z,69.36
2023-03-17T00:24:07.023Z,69.34
2023-03-17T00:26:39.205Z,69.68
2023-03-17T00:29:11.796Z,69.55
2023-03-17T00:31:46.062Z,69.34
2023-03-17T00:34:18.876Z,69.35
2023-03-17T00:36:53.128Z,69.45
2023-03-17T00:39:27.536Z,69.49
2023-03-17T00:42:00.146Z,69.66
2023-03-17T00:44:32.848Z,69.64
2023-03-17T00:47:02.660Z,69.87
2023-03-17T00:49:31.757Z,69.78
2023-03-17T00:52:02.733Z,69.84
2023-03-17T00:54:33.427Z,69.87
2023-03-17T00:57:03.073Z,69.88
2023-03-17T00:59:41.443Z,70.05
2023-03-17T01:02:15.319Z,70.16
2023-03-17T01:04:52.872Z,70.14
2023-03-17T01:07:33.147Z,70.37
2023-03-17T01:10:05.757Z,70.34
2023-03-17T01:13:06.367Z,70.38
2023-03-17T01:15:39.322Z,70.25
2023-03-17T01:18:13.490Z,70.39
2023-03-17T01:20:43.850Z,70.29
2023-03-17T01:23:14.672Z,70.18
2023-03-17T01:25:45.845Z,70.12
2023-03-17T01:28:18.398Z,70.25
2023-03-17T01:30:49.707Z,70.30
2023-03-17T01:33:23.069Z,70.27
2023-03-17T01:35:53.563Z,70.29
2023-03-17T01:38:23.234Z,70.22
2023-03-17T01:40:54.374Z,70.29
2023-03-17T01:43:31.169Z,70.05
2023-03-17T01:46:39.781Z,70.27
2023-03-17T01:49:09.994Z,70.06
2023-03-17T01:51:40.910Z,70.02
2023-03-17T01:54:17.683Z,70.07
2023-03-17T01:56:51.353Z,70.09
2023-03-17T01:59:28.192Z,70.09
2023-03-17T02:02:06.737Z,70.33
2023-03-17T02:04:39.837Z,70.36
2023-03-17T02:07:10.627Z,70.44
2023-03-17T02:09:45.039Z,70.30
2023-03-17T02:12:16.629Z,70.67
2023-03-17T02:14:49.475Z,70.45
2023-03-17T02:17:20.251Z,70.66
2023-03-17T02:19:54.855Z,70.64
2023-03-17T02:22:25.506Z,70.68
2023-03-17T02:25:00.940Z,70.61
2023-03-17T02:27:39.175Z,70.52
2023-03-17T02:30:12.907Z,70.59
2023-03-17T02:32:46.955Z,70.61
2023-03-17T02:35:16.264Z,70.64
2023-03-17T02:37:49.357Z,70.77
2023-03-17T02:40:19.933Z,70.90
2023-03-17T02:42:50.181Z,71.02
2023-03-17T02:45:21.012Z,71.08
2023-03-17T02:47:53.051Z,71.10
2023-03-17T02:50:25.390Z,71.26
2023-03-17T02:52:58.316Z,71.18
2023-03-17T02:55:30.780Z,71.16
2023-03-17T02:58:03.539Z,71.28
2023-03-17T03:00:35.324Z,71.36
2023-03-17T03:03:05.376Z,71.33
2023-03-17T03:05:39.293Z,71.27
2023-03-17T03:08:11.717Z,71.12
2023-03-17T03:10:42.263Z,71.28
2023-03-17T03:13:15.188Z,71.17
2023-03-17T03:15:45.395Z,71.28
2023-03-17T03:18:17.227Z,71.31
2023-03-17T03:20:47.932Z,71.18
2023-03-17T03:23:18.588Z,71.49
2023-03-17T03:25:49.218Z,71.53
2023-03-17T03:28:19.593Z,71.73
2023-03-17T03:30:48.877Z,71.72
2023-03-17T03:33:20.483Z,71.77
2023-03-17T03:35:51.732Z,71.87
2023-03-17T03:38:21.642Z,72.12
2023-03-17T03:40:52.887Z,72.03
2023-03-17T03:43:24.041Z,72.33
2023-03-17T03:45:55.045Z,72.56
2023-03-17T03:48:26.175Z,72.28
2023-03-17T03:51:01.733Z,72.23
2023-03-17T03:53:36.128Z,72.52
2023-03-17T03:56:05.717Z,72.31
2023-03-17T03:58:36.087Z,72.34
2023-03-17T04:01:07.808Z,72.36
2023-03-17T04:03:38.976Z,72.10
2023-03-17T04:06:09.111Z,72.33
2023-03-17T04:08:42.314Z,72.58
2023-03-17T04:11:11.726Z,72.66
2023-03-17T04:13:44.672Z,72.70
2023-03-17T04:16:17.888Z,72.78
2023-03-17T04:18:48.395Z,72.65
2023-03-17T04:21:19.476Z,72.76
2023-03-17T04:23:50.673Z,72.83
2023-03-17T04:26:23.736Z,72.70
2023-03-17T04:28:53.425Z,72.61
2023-03-17T04:31:27.299Z,72.63
2023-03-17T04:33:58.441Z,72.61
2023-03-17T04:36:31.036Z,72.67
2023-03-17T04:39:04.331Z,72.62
2023-03-17T04:41:34.983Z,72.58
2023-03-17T04:44:06.457Z,72.71
2023-03-17T04:46:38.853Z,72.72
2023-03-17T04:49:11.057Z,72.64
2023-03-17T04:51:42.765Z,72.58
2023-03-17T04:54:14.400Z,72.63
2023-03-17T04:56:47.084Z,72.54
2023-03-17T04:59:17.271Z,72.89
2023-03-17T05:01:50.320Z,72.87
2023-03-17T05:04:31.089Z,72.92
2023-03-17T05:07:04.250Z,73.08
2023-03-17T05:09:33.922Z,72.80
2023-03-17T05:12:04.715Z,72.68
2023-03-17T05:14:35.856Z,72.96
2023-03-17T05:17:06.711Z,72.83
2023-03-17T05:19:40.586Z,72.94
2023-03-17T05:22:11.469Z,72.85
2023-03-17T05:24:42.259Z,72.92
2023-03-17T05:27:12.672Z,72.96
2023-03-17T05:29:44.413Z,72.86
2023-03-17T05:32:14.030Z,72.72
2023-03-17T05:34:45.945Z,72.89
2023-03-17T05:37:18.230Z,72.90
2023-03-17T05:39:48.470Z,72.92
2023-03-17T05:42:23.351Z,72.95
2023-03-17T05:44:55.842Z,72.95
2023-03-17T05:47:28.321Z,72.85
2023-03-17T05:50:01.556Z,72.98
2023-03-17T05:52:30.671Z,72.98
2023-03-17T05:55:00.676Z,72.99
2023-03-17T05:57:31.325Z,72.79
2023-03-17T06:00:01.931Z,72.88
2023-03-17T06:02:36.739Z,72.90
2023-03-17T06:05:09.264Z,72.90
2023-03-17T06:07:51.952Z,73.03
2023-03-17T06:10:25.907Z,73.06
2023-03-17T06:12:55.547Z,72.97
2023-03-17T06:15:25.397Z,72.94
2023-03-17T06:17:57.361Z,73.10
2023-03-17T06:20:27.074Z,73.17
2023-03-17T06:23:04.385Z,73.20
2023-03-17T06:25:37.992Z,73.16
2023-03-17T06:28:08.094Z,73.17
2023-03-17T06:30:40.752Z,73.26
2023-03-17T06:33:11.374Z,73.36
2023-03-17T06:35:40.991Z,73.39
2023-03-17T06:38:12.315Z,73.32
2023-03-17T06:40:44.116Z,73.40
2023-03-17T06:43:14.180Z,73.42
2023-03-17T06:45:45.010Z,73.73
2023-03-17T06:48:15.255Z,73.43
2023-03-17T06:50:51.642Z,73.22
2023-03-17T06:53:22.278Z,73.24
2023-03-17T06:55:51.826Z,73.33
2023-03-17T06:58:22.976Z,73.56
2023-03-17T07:00:55.334Z,73.27
2023-03-17T07:03:28.092Z,73.46
2023-03-17T07:06:00.266Z,73.56
2023-03-17T07:08:31.536Z,73.48
2023-03-17T07:11:04.955Z,73.54
2023-03-17T07:13:37.600Z,73.83
2023-03-17T07:16:09.019Z,73.59
2023-03-17T07:18:37.969Z,73.43
2023-03-17T07:21:07.502Z,73.79
2023-03-17T07:23:37.988Z,73.50
2023-03-17T07:26:07.094Z,73.39
2023-03-17T07:28:37.198Z,73.26
2023-03-17T07:31:10.979Z,73.06
2023-03-17T07:33:43.265Z,73.44
2023-03-17T07:36:16.541Z,73.20
2023-03-17T07:38:47.621Z,72.97
2023-03-17T07:41:17.221Z,72.83
2023-03-17T07:43:49.143Z,72.97
2023-03-17T07:46:20.011Z,73.19
2023-03-17T07:48:51.496Z,73.11
2023-03-17T07:51:23.833Z,73.15
2023-03-17T07:54:03.915Z,73.31
2023-03-17T07:56:36.448Z,73.49
2023-03-17T07:59:12.425Z,73.29
2023-03-17T08:01:45.320Z,73.20
2023-03-17T08:04:16.342Z,73.04
2023-03-17T08:06:47.176Z,72.81
2023-03-17T08:09:17.401Z,72.66
2023-03-17T08:11:49.461Z,72.65
2023-03-17T08:14:22.395Z,72.55
2023-03-17T08:16:51.734Z,72.58
2023-03-17T08:19:22.701Z,72.36
2023-03-17T08:21:54.786Z,72.27
2023-03-17T08:24:27.579Z,72.06
2023-03-17T08:26:59.806Z,71.93
2023-03-17T08:29:32.007Z,71.83
2023-03-17T08:32:06.016Z,71.77
2023-03-17T08:34:37.638Z,71.67
2023-03-17T08:37:11.329Z,71.39
2023-03-17T08:39:41.417Z,71.07
2023-03-17T08:42:12.382Z,70.36
2023-03-17T08:44:44.697Z,70.74
2023-03-17T08:47:13.938Z,71.08
2023-03-17T08:49:44.185Z,70.09
2023-03-17T08:52:15.536Z,68.92
2023-03-17T08:54:47.596Z,67.96
2023-03-17T08:57:18.540Z,66.86
2023-03-17T08:59:49.025Z,67.01
2023-03-17T09:02:20.804Z,67.45
2023-03-17T09:04:51.848Z,67.53
2023-03-17T09:07:23.011Z,66.53
2023-03-17T09:09:53.321Z,66.73
2023-03-17T09:12:53.003Z,66.60
2023-03-17T09:15:25.802Z,64.89
2023-03-17T09:17:57.945Z,64.61
2023-03-17T09:20:27.731Z,65.55
2023-03-17T09:22:58.493Z,66.27
2023-03-17T09:25:29.261Z,67.56
2023-03-17T09:27:59.560Z,68.08
2023-03-17T09:30:32.452Z,68.68
2023-03-17T09:33:04.487Z,68.95
2023-03-17T09:35:37.528Z,68.38
2023-03-17T09:38:11.951Z,68.35
2023-03-17T09:41:35.877Z,68.32
2023-03-17T09:44:13.866Z,68.81
2023-03-17T09:47:11.228Z,69.25
2023-03-17T09:49:52.793Z,68.81
2023-03-17T09:52:29.633Z,68.18
2023-03-17T09:55:01.970Z,68.65
2023-03-17T09:57:40.955Z,68.41
2023-03-17T10:00:23.580Z,67.71
2023-03-17T10:02:56.027Z,67.92
2023-03-17T10:05:29.725Z,67.46
2023-03-17T10:08:31.532Z,67.12
2023-03-17T10:14:34.117Z,67.41
2023-03-17T10:20:30.089Z,67.61
2023-03-17T10:23:08.222Z,67.31
2023-03-17T10:25:38.840Z,67.48
2023-03-17T10:28:20.907Z,67.42
2023-03-17T10:30:52.000Z,66.38
2023-03-17T10:33:24.504Z,66.05
2023-03-17T10:35:55.017Z,64.54
2023-03-17T10:38:28.063Z,65.05
2023-03-17T10:41:02.598Z,64.30
2023-03-17T10:43:41.721Z,64.81
2023-03-17T10:46:31.842Z,64.41
2023-03-17T10:49:17.165Z,63.84
2023-03-17T10:51:49.570Z,63.44
2023-03-17T10:54:21.504Z,63.08
2023-03-17T10:57:02.485Z,62.42
2023-03-17T10:59:44.776Z,62.28
2023-03-17T11:02:37.725Z,62.72
2023-03-17T11:05:26.069Z,62.60
2023-03-17T11:08:08.913Z,62.11
2023-03-17T11:10:40.798Z,60.77
2023-03-17T11:13:36.647Z,61.84
2023-03-17T11:16:25.124Z,60.79
2023-03-17T11:19:00.879Z,60.27
2023-03-17T11:21:35.203Z,59.42
2023-03-17T11:24:41.193Z,58.59
2023-03-17T11:27:19.654Z,58.41
2023-03-17T11:30:20.412Z,58.04
2023-03-17T11:33:04.961Z,58.47
2023-03-17T11:35:44.569Z,58.83
2023-03-17T11:38:17.206Z,58.63
2023-03-17T11:40:55.220Z,57.26
2023-03-17T11:44:29.736Z,57.88
2023-03-17T11:47:12.684Z,56.80
2023-03-17T11:49:51.462Z,57.17
2023-03-17T11:53:21.372Z,57.39
2023-03-17T11:56:14.514Z,56.67
2023-03-17T11:58:49.785Z,55.48
2023-03-17T12:01:28.985Z,55.12
2023-03-17T12:04:17.096Z,56.09
2023-03-17T12:07:24.796Z,56.27
2023-03-17T12:10:29.804Z,56.50
2023-03-17T12:13:07.606Z,56.38
2023-03-17T12:15:45.964Z,56.42
2023-03-17T12:18:28.878Z,54.88
2023-03-17T12:21:02.367Z,53.76
2023-03-17T12:23:38.737Z,54.39
2023-03-17T12:26:16.372Z,54.89
2023-03-17T12:29:53.164Z,55.05
2023-03-17T12:32:46.713Z,55.69
2023-03-17T12:35:26.380Z,54.95
2023-03-17T12:37:59.141Z,55.22
2023-03-17T12:40:43.369Z,52.37
2023-03-17T12:43:48.787Z,52.23
2023-03-17T12:46:49.187Z,54.59
2023-03-17T12:49:40.549Z,54.23
2023-03-17T12:52:26.549Z,52.97
2023-03-17T12:55:01.755Z,52.80
2023-03-17T12:57:49.741Z,52.11
2023-03-17T13:00:31.098Z,52.69
2023-03-17T13:03:25.777Z,52.36
2023-03-17T13:05:59.158Z,51.21
2023-03-17T13:08:37.842Z,49.60
2023-03-17T13:11:27.211Z,52.14
2023-03-17T13:14:09.194Z,51.56
2023-03-17T13:16:46.193Z,51.22
2023-03-17T13:19:25.921Z,50.61
2023-03-17T13:22:03.955Z,49.17
2023-03-17T13:24:49.002Z,48.74
2023-03-17T13:27:33.402Z,50.61
2023-03-17T13:30:26.804Z,51.57
2023-03-17T13:32:59.903Z,51.76
2023-03-17T13:35:59.209Z,51.02
2023-03-17T13:38:34.678Z,50.02
2023-03-17T13:41:32.586Z,50.62
2023-03-17T13:44:33.234Z,49.16
2023-03-17T13:47:34.151Z,49.02
2023-03-17T13:50:18.294Z,47.74
2023-03-17T13:52:48.905Z,47.84
2023-03-17T13:55:19.888Z,48.25
2023-03-17T13:58:11.566Z,49.00
2023-03-17T14:00:54.080Z,49.61
2023-03-17T14:03:43.169Z,49.69
2023-03-17T14:06:15.258Z,49.83
2023-03-17T14:08:47.298Z,49.33
2023-03-17T14:11:38.401Z,49.12
2023-03-17T14:14:32.670Z,48.16
2023-03-17T14:17:24.934Z,49.59
2023-03-17T14:20:20.219Z,49.43
2023-03-17T14:23:00.297Z,49.36
2023-03-17T14:25:35.805Z,49.17
2023-03-17T14:28:11.372Z,48.78
2023-03-17T14:30:55.912Z,48.74
2023-03-17T14:33:38.610Z,48.97
2023-03-17T14:36:14.173Z,48.84
2023-03-17T14:38:49.633Z,48.33
2023-03-17T14:41:25.014Z,49.08
2023-03-17T14:43:58.836Z,48.84
2023-03-17T14:46:41.550Z,48.87
2023-03-17T14:49:23.087Z,48.85
2023-03-17T14:51:57.683Z,48.65
2023-03-17T14:54:34.015Z,48.94
2023-03-17T14:57:08.170Z,48.40
2023-03-17T14:59:42.955Z,48.29
2023-03-17T15:02:39.287Z,48.43
2023-03-17T15:05:38.605Z,48.29
2023-03-17T15:08:36.244Z,48.53
2023-03-17T15:11:09.289Z,47.66
2023-03-17T15:13:39.661Z,47.76
2023-03-17T15:16:32.153Z,47.67
2023-03-17T15:19:20.192Z,47.98
2023-03-17T15:21:52.169Z,47.91
2023-03-17T15:24:41.065Z,47.95
2023-03-17T15:27:19.294Z,48.01
2023-03-17T15:29:50.103Z,48.38
2023-03-17T15:32:23.930Z,48.36
2023-03-17T15:34:57.597Z,47.66
2023-03-17T15:37:32.404Z,48.21
2023-03-17T15:40:05.989Z,48.17
2023-03-17T15:42:37.345Z,47.85
2023-03-17T15:45:08.675Z,47.71
2023-03-17T15:47:40.460Z,48.08
2023-03-17T15:50:21.578Z,47.94
2023-03-17T15:52:56.402Z,48.36
2023-03-17T15:55:31.947Z,48.37
2023-03-17T15:58:03.490Z,47.92
2023-03-17T16:00:36.827Z,47.80
2023-03-17T16:03:21.049Z,47.97
2023-03-17T16:05:51.894Z,48.43
2023-03-17T16:08:25.363Z,48.15
2023-03-17T16:10:56.180Z,48.14
2023-03-17T16:13:31.143Z,48.49
2023-03-17T16:16:05.863Z,48.60
2023-03-17T16:18:39.486Z,48.24
2023-03-17T16:21:10.419Z,48.44
2023-03-17T16:23:41.985Z,48.16
2023-03-17T16:26:16.036Z,48.59
2023-03-17T16:28:48.275Z,48.30
2023-03-17T16:31:21.420Z,48.26
2023-03-17T16:33:51.551Z,48.48
2023-03-17T16:36:25.962Z,48.52
2023-03-17T16:38:56.230Z,48.48
2023-03-17T16:41:28.020Z,48.47
2023-03-17T16:44:02.696Z,48.65
2023-03-17T16:46:35.488Z,48.59
2023-03-17T16:49:07.011Z,48.65
2023-03-17T16:51:40.329Z,48.56
2023-03-17T16:54:11.993Z,48.37
2023-03-17T16:56:44.631Z,48.53
2023-03-17T16:59:21.632Z,48.48
2023-03-17T17:01:52.948Z,48.25
2023-03-17T17:04:24.996Z,48.89
2023-03-17T17:06:58.833Z,48.82
2023-03-17T17:09:29.843Z,48.81
2023-03-17T17:12:01.377Z,48.90
2023-03-17T17:14:36.153Z,48.87
2023-03-17T17:17:05.732Z,48.81
2023-03-17T17:19:36.272Z,49.01
2023-03-17T17:22:08.313Z,49.00
2023-03-17T17:24:38.231Z,48.85
2023-03-17T17:27:12.434Z,49.12
2023-03-17T17:29:43.034Z,49.06
2023-03-17T17:32:13.915Z,49.09
2023-03-17T17:34:45.132Z,49.22
2023-03-17T17:37:18.336Z,49.24
2023-03-17T17:39:50.778Z,49.24
2023-03-17T17:42:22.830Z,49.45
2023-03-17T17:44:54.464Z,49.42
2023-03-17T17:47:27.722Z,49.37
2023-03-17T17:50:00.635Z,49.36
2023-03-17T17:52:31.603Z,49.24
2023-03-17T17:55:05.334Z,49.64
2023-03-17T17:57:37.502Z,49.48
2023-03-17T18:00:11.973Z,49.70
2023-03-17T18:02:42.042Z,49.53
2023-03-17T18:05:14.987Z,49.53
2023-03-17T18:07:48.139Z,49.78
2023-03-17T18:10:24.561Z,49.64
2023-03-17T18:13:00.529Z,49.75
2023-03-17T18:15:30.801Z,50.00
2023-03-17T18:18:02.874Z,49.70
2023-03-17T18:20:36.432Z,49.90
2023-03-17T18:23:15.752Z,49.89
2023-03-17T18:25:47.119Z,49.91
2023-03-17T18:28:18.457Z,49.79
2023-03-17T18:30:49.241Z,49.84
2023-03-17T18:33:21.490Z,49.93
2023-03-17T18:35:55.566Z,49.88
2023-03-17T18:38:26.071Z,49.58
2023-03-17T18:40:59.237Z,49.84
2023-03-17T18:43:30.578Z,49.92
2023-03-17T18:46:02.391Z,50.03
2023-03-17T18:48:37.350Z,49.69
2023-03-17T18:51:09.285Z,49.82
2023-03-17T18:53:40.667Z,50.00
2023-03-17T18:56:11.657Z,49.89
2023-03-17T18:58:46.089Z,49.94
2023-03-17T19:01:20.181Z,49.80
2023-03-17T19:03:54.732Z,50.09
2023-03-17T19:06:28.029Z,50.02
2023-03-17T19:09:00.769Z,49.98
2023-03-17T19:11:33.423Z,49.94
2023-03-17T19:14:05.709Z,50.21
2023-03-17T19:16:43.609Z,50.26
2023-03-17T19:19:19.448Z,50.26
2023-03-17T19:21:53.787Z,50.38
2023-03-17T19:24:25.486Z,50.23
2023-03-17T19:26:57.168Z,50.46
2023-03-17T19:29:35.322Z,50.31
2023-03-17T19:32:08.421Z,50.44
2023-03-17T19:34:43.016Z,50.37
2023-03-17T19:37:16.595Z,50.60
2023-03-17T19:39:48.232Z,50.50
2023-03-17T19:42:19.616Z,50.44
2023-03-17T19:44:52.668Z,50.65
2023-03-17T19:47:31.319Z,50.56
2023-03-17T19:50:06.857Z,50.71
2023-03-17T19:52:38.606Z,50.78
2023-03-17T19:55:13.769Z,50.56
2023-03-17T19:57:46.191Z,50.64
2023-03-17T20:00:17.787Z,50.58
2023-03-17T20:02:50.149Z,50.90
2023-03-17T20:05:21.721Z,50.66
2023-03-17T20:07:53.282Z,50.82
2023-03-17T20:10:23.696Z,50.92
2023-03-17T20:12:59.447Z,51.14
2023-03-17T20:15:32.908Z,50.96
2023-03-17T20:18:09.093Z,51.04
2023-03-17T20:20:41.711Z,51.16
2023-03-17T20:23:13.876Z,50.86
2023-03-17T20:25:45.394Z,51.03
2023-03-17T20:28:17.959Z,51.13
2023-03-17T20:30:51.243Z,51.27
2023-03-17T20:33:22.049Z,51.29
2023-03-17T20:35:54.078Z,51.43
2023-03-17T20:38:26.500Z,51.49
2023-03-17T20:41:13.426Z,51.54
2023-03-17T20:43:44.769Z,51.40
2023-03-17T20:46:21.750Z,51.63
2023-03-17T20:48:59.839Z,51.32
2023-03-17T20:51:33.431Z,51.54
2023-03-17T20:54:07.179Z,51.61
2023-03-17T20:56:38.451Z,51.61
2023-03-17T20:59:12.831Z,51.69
2023-03-17T21:01:46.894Z,51.81
2023-03-17T21:04:18.732Z,51.69
2023-03-17T21:06:50.557Z,51.72
2023-03-17T21:09:22.534Z,51.85
2023-03-17T21:11:57.169Z,51.93
2023-03-17T21:14:34.826Z,51.97
2023-03-17T21:17:05.898Z,51.91
2023-03-17T21:19:37.366Z,52.10
2023-03-17T21:22:13.073Z,52.07
2023-03-17T21:24:49.021Z,52.11
2023-03-17T21:27:22.243Z,52.13
2023-03-17T21:29:53.163Z,52.24
2023-03-17T21:32:27.300Z,52.19
2023-03-17T21:34:59.394Z,52.24
2023-03-17T21:37:33.125Z,52.38
2023-03-17T21:40:07.625Z,52.43
2023-03-17T21:42:38.074Z,52.27
2023-03-17T21:45:13.129Z,52.37
2023-03-17T21:47:45.223Z,52.39
2023-03-17T21:50:19.369Z,52.38
2023-03-17T21:52:52.120Z,52.55
2023-03-17T21:55:26.020Z,52.63
2023-03-17T21:57:57.221Z,52.32
2023-03-17T22:00:35.982Z,52.71
2023-03-17T22:03:17.088Z,52.50
2023-03-17T22:05:48.351Z,52.68
2023-03-17T22:08:23.877Z,52.60
2023-03-17T22:10:54.450Z,52.49
2023-03-17T22:13:24.918Z,52.63
2023-03-17T22:15:56.798Z,52.55
2023-03-17T22:18:27.559Z,52.65
2023-03-17T22:20:59.350Z,52.72
2023-03-17T22:23:30.797Z,52.91
2023-03-17T22:26:03.286Z,52.38
2023-03-17T22:28:33.228Z,52.86
2023-03-17T22:31:11.731Z,52.90
2023-03-17T22:33:43.090Z,52.84
2023-03-17T22:36:14.686Z,53.04
2023-03-17T22:38:48.392Z,53.01
2023-03-17T22:41:21.098Z,52.90
2023-03-17T22:43:54.931Z,53.01
2023-03-17T22:46:25.824Z,53.06
2023-03-17T22:48:57.089Z,53.09
2023-03-17T22:51:28.778Z,53.07
2023-03-17T22:53:58.840Z,52.95
2023-03-17T22:56:30.547Z,53.09
2023-03-17T22:59:03.020Z,53.13
2023-03-17T23:01:32.188Z,53.17
2023-03-17T23:04:04.601Z,53.02
2023-03-17T23:06:38.267Z,53.00
2023-03-17T23:09:08.408Z,53.33
2023-03-17T23:11:40.262Z,53.17
2023-03-17T23:14:11.698Z,53.30
2023-03-17T23:16:44.261Z,53.13
2023-03-17T23:19:16.989Z,53.40
2023-03-17T23:21:47.734Z,53.36
2023-03-17T23:24:20.271Z,53.59
2023-03-17T23:26:51.751Z,53.48
2023-03-17T23:29:25.791Z,53.27
2023-03-17T23:31:56.779Z,53.48
2023-03-17T23:34:27.390Z,53.56
2023-03-17T23:37:00.268Z,53.82
2023-03-17T23:39:32.008Z,53.69
2023-03-17T23:42:01.986Z,53.80
2023-03-17T23:44:35.834Z,53.70
2023-03-17T23:47:05.856Z,53.83
2023-03-17T23:49:35.331Z,53.66
2023-03-17T23:52:08.385Z,53.87
2023-03-17T23:54:42.037Z,53.95
2023-03-17T23:57:13.097Z,54.06
2023-03-17T23:59:44.178Z,53.85
